sensor_id;sensor_type;location;lat;lon;timestamp;P1;durP1;ratioP1;P2;durP2;ratioP2
19830;SDS011;10076;52.008;4.708;2023-06-14T00:01:34;3.40;;;2.88;;
19830;SDS011;10076;52.008;4.708;2023-06-14T00:04:00;6.40;;;2.20;;
19830;SDS011;10076;52.008;4.708;2023-06-14T00:06:26;3.50;;;2.22;;
19830;SDS011;10076;52.008;4.708;2023-06-14T00:08:53;4.55;;;3.05;;
19830;SDS011;10076;52.008;4.708;2023-06-14T00:11:19;4.47;;;2.40;;
19830;SDS011;10076;52.008;4.708;2023-06-14T00:13:45;3.47;;;2.28;;
19830;SDS011;10076;52.008;4.708;2023-06-14T00:16:10;4.88;;;2.42;;
19830;SDS011;10076;52.008;4.708;2023-06-14T00:18:36;3.13;;;2.03;;
19830;SDS011;10076;52.008;4.708;2023-06-14T00:21:01;5.47;;;2.15;;
19830;SDS011;10076;52.008;4.708;2023-06-14T00:23:27;6.00;;;2.50;;
19830;SDS011;10076;52.008;4.708;2023-06-14T00:25:52;5.13;;;2.63;;
19830;SDS011;10076;52.008;4.708;2023-06-14T00:28:17;5.00;;;2.50;;
19830;SDS011;10076;52.008;4.708;2023-06-14T00:30:43;3.47;;;2.28;;
19830;SDS011;10076;52.008;4.708;2023-06-14T00:33:11;2.80;;;2.10;;
19830;SDS011;10076;52.008;4.708;2023-06-14T00:35:36;3.67;;;2.15;;
19830;SDS011;10076;52.008;4.708;2023-06-14T00:38:02;2.53;;;2.30;;
19830;SDS011;10076;52.008;4.708;2023-06-14T00:40:27;4.18;;;2.58;;
19830;SDS011;10076;52.008;4.708;2023-06-14T00:42:52;2.80;;;2.53;;
19830;SDS011;10076;52.008;4.708;2023-06-14T00:45:18;3.50;;;2.72;;
19830;SDS011;10076;52.008;4.708;2023-06-14T00:47:43;7.18;;;2.97;;
19830;SDS011;10076;52.008;4.708;2023-06-14T00:50:11;5.38;;;2.42;;
19830;SDS011;10076;52.008;4.708;2023-06-14T00:52:37;3.80;;;2.67;;
19830;SDS011;10076;52.008;4.708;2023-06-14T00:55:03;4.80;;;2.75;;
19830;SDS011;10076;52.008;4.708;2023-06-14T00:57:28;6.70;;;2.63;;
19830;SDS011;10076;52.008;4.708;2023-06-14T00:59:54;3.67;;;2.47;;
19830;SDS011;10076;52.008;4.708;2023-06-14T01:02:20;5.03;;;2.42;;
19830;SDS011;10076;52.008;4.708;2023-06-14T01:04:46;6.25;;;2.75;;
19830;SDS011;10076;52.008;4.708;2023-06-14T01:07:33;4.35;;;2.53;;
19830;SDS011;10076;52.008;4.708;2023-06-14T01:12:54;5.35;;;2.70;;
19830;SDS011;10076;52.008;4.708;2023-06-14T01:15:27;4.60;;;2.05;;
19830;SDS011;10076;52.008;4.708;2023-06-14T01:17:56;3.45;;;2.20;;
19830;SDS011;10076;52.008;4.708;2023-06-14T01:20:28;3.67;;;2.22;;
19830;SDS011;10076;52.008;4.708;2023-06-14T01:22:54;3.40;;;2.47;;
19830;SDS011;10076;52.008;4.708;2023-06-14T01:25:20;3.08;;;2.30;;
19830;SDS011;10076;52.008;4.708;2023-06-14T01:28:21;4.35;;;2.28;;
19830;SDS011;10076;52.008;4.708;2023-06-14T01:30:41;4.47;;;2.03;;
19830;SDS011;10076;52.008;4.708;2023-06-14T01:33:10;3.60;;;2.30;;
19830;SDS011;10076;52.008;4.708;2023-06-14T01:35:38;3.63;;;2.30;;
19830;SDS011;10076;52.008;4.708;2023-06-14T01:38:04;3.88;;;2.90;;
19830;SDS011;10076;52.008;4.708;2023-06-14T01:40:31;6.80;;;2.03;;
19830;SDS011;10076;52.008;4.708;2023-06-14T01:42:59;4.40;;;2.42;;
19830;SDS011;10076;52.008;4.708;2023-06-14T01:45:25;3.97;;;2.53;;
19830;SDS011;10076;52.008;4.708;2023-06-14T01:47:52;2.22;;;2.00;;
19830;SDS011;10076;52.008;4.708;2023-06-14T01:50:18;4.28;;;2.40;;
19830;SDS011;10076;52.008;4.708;2023-06-14T01:52:45;2.75;;;1.98;;
19830;SDS011;10076;52.008;4.708;2023-06-14T01:55:10;4.57;;;2.15;;
19830;SDS011;10076;52.008;4.708;2023-06-14T01:57:35;3.20;;;2.22;;
19830;SDS011;10076;52.008;4.708;2023-06-14T02:00:01;4.43;;;2.70;;
19830;SDS011;10076;52.008;4.708;2023-06-14T02:02:28;2.78;;;2.17;;
19830;SDS011;10076;52.008;4.708;2023-06-14T02:04:53;2.83;;;2.13;;
19830;SDS011;10076;52.008;4.708;2023-06-14T02:07:22;4.07;;;2.17;;
19830;SDS011;10076;52.008;4.708;2023-06-14T02:09:47;7.45;;;2.47;;
19830;SDS011;10076;52.008;4.708;2023-06-14T02:12:13;4.10;;;2.13;;
19830;SDS011;10076;52.008;4.708;2023-06-14T02:14:38;4.78;;;2.45;;
19830;SDS011;10076;52.008;4.708;2023-06-14T02:17:04;4.95;;;1.90;;
19830;SDS011;10076;52.008;4.708;2023-06-14T02:19:29;3.67;;;2.40;;
19830;SDS011;10076;52.008;4.708;2023-06-14T02:21:55;3.58;;;2.38;;
19830;SDS011;10076;52.008;4.708;2023-06-14T02:24:20;3.55;;;2.50;;
19830;SDS011;10076;52.008;4.708;2023-06-14T02:26:45;5.32;;;2.50;;
19830;SDS011;10076;52.008;4.708;2023-06-14T02:29:10;3.90;;;2.10;;
19830;SDS011;10076;52.008;4.708;2023-06-14T02:31:37;6.85;;;2.53;;
19830;SDS011;10076;52.008;4.708;2023-06-14T02:34:03;4.50;;;2.30;;
19830;SDS011;10076;52.008;4.708;2023-06-14T02:36:29;3.03;;;2.15;;
19830;SDS011;10076;52.008;4.708;2023-06-14T02:38:55;4.20;;;2.15;;
19830;SDS011;10076;52.008;4.708;2023-06-14T02:41:22;3.83;;;2.47;;
19830;SDS011;10076;52.008;4.708;2023-06-14T02:43:48;5.53;;;2.10;;
19830;SDS011;10076;52.008;4.708;2023-06-14T02:46:13;5.85;;;2.22;;
19830;SDS011;10076;52.008;4.708;2023-06-14T02:48:39;4.60;;;2.28;;
19830;SDS011;10076;52.008;4.708;2023-06-14T02:51:05;3.55;;;2.13;;
19830;SDS011;10076;52.008;4.708;2023-06-14T02:53:31;4.05;;;2.05;;
19830;SDS011;10076;52.008;4.708;2023-06-14T02:55:57;5.68;;;2.30;;
19830;SDS011;10076;52.008;4.708;2023-06-14T02:58:23;2.72;;;1.98;;
19830;SDS011;10076;52.008;4.708;2023-06-14T03:00:50;4.53;;;2.35;;
19830;SDS011;10076;52.008;4.708;2023-06-14T03:03:17;4.72;;;2.20;;
19830;SDS011;10076;52.008;4.708;2023-06-14T03:05:44;3.15;;;2.05;;
19830;SDS011;10076;52.008;4.708;2023-06-14T03:08:15;2.95;;;2.30;;
19830;SDS011;10076;52.008;4.708;2023-06-14T03:10:44;3.47;;;2.38;;
19830;SDS011;10076;52.008;4.708;2023-06-14T03:13:09;6.00;;;2.63;;
19830;SDS011;10076;52.008;4.708;2023-06-14T03:15:36;5.20;;;2.35;;
19830;SDS011;10076;52.008;4.708;2023-06-14T03:18:01;5.20;;;2.25;;
19830;SDS011;10076;52.008;4.708;2023-06-14T03:20:28;2.53;;;2.13;;
19830;SDS011;10076;52.008;4.708;2023-06-14T03:22:54;5.05;;;2.50;;
19830;SDS011;10076;52.008;4.708;2023-06-14T03:25:20;4.60;;;2.60;;
19830;SDS011;10076;52.008;4.708;2023-06-14T03:27:47;4.03;;;2.08;;
19830;SDS011;10076;52.008;4.708;2023-06-14T03:30:12;3.40;;;2.35;;
19830;SDS011;10076;52.008;4.708;2023-06-14T03:32:38;5.55;;;2.03;;
19830;SDS011;10076;52.008;4.708;2023-06-14T03:35:03;5.13;;;2.63;;
19830;SDS011;10076;52.008;4.708;2023-06-14T03:37:29;6.45;;;2.17;;
19830;SDS011;10076;52.008;4.708;2023-06-14T03:39:54;4.03;;;2.47;;
19830;SDS011;10076;52.008;4.708;2023-06-14T03:42:19;5.57;;;2.53;;
19830;SDS011;10076;52.008;4.708;2023-06-14T03:44:45;8.90;;;2.58;;
19830;SDS011;10076;52.008;4.708;2023-06-14T03:47:10;6.18;;;2.60;;
19830;SDS011;10076;52.008;4.708;2023-06-14T03:49:35;4.38;;;2.70;;
19830;SDS011;10076;52.008;4.708;2023-06-14T03:52:01;4.22;;;2.13;;
19830;SDS011;10076;52.008;4.708;2023-06-14T03:54:27;5.97;;;2.30;;
19830;SDS011;10076;52.008;4.708;2023-06-14T03:56:53;5.53;;;2.15;;
19830;SDS011;10076;52.008;4.708;2023-06-14T03:59:19;3.63;;;2.05;;
19830;SDS011;10076;52.008;4.708;2023-06-14T04:01:44;2.88;;;2.00;;
19830;SDS011;10076;52.008;4.708;2023-06-14T04:04:11;4.85;;;2.53;;
19830;SDS011;10076;52.008;4.708;2023-06-14T04:06:37;3.97;;;2.60;;
19830;SDS011;10076;52.008;4.708;2023-06-14T04:09:02;4.38;;;2.20;;
19830;SDS011;10076;52.008;4.708;2023-06-14T04:11:27;3.10;;;2.30;;
19830;SDS011;10076;52.008;4.708;2023-06-14T04:13:53;3.80;;;2.60;;
19830;SDS011;10076;52.008;4.708;2023-06-14T04:16:18;5.82;;;2.35;;
19830;SDS011;10076;52.008;4.708;2023-06-14T04:18:44;7.03;;;2.40;;
19830;SDS011;10076;52.008;4.708;2023-06-14T04:21:11;4.80;;;2.40;;
19830;SDS011;10076;52.008;4.708;2023-06-14T04:23:36;2.80;;;1.98;;
19830;SDS011;10076;52.008;4.708;2023-06-14T04:26:03;3.13;;;2.17;;
19830;SDS011;10076;52.008;4.708;2023-06-14T04:28:28;3.15;;;2.03;;
19830;SDS011;10076;52.008;4.708;2023-06-14T04:30:53;4.05;;;2.28;;
19830;SDS011;10076;52.008;4.708;2023-06-14T04:33:19;3.75;;;2.50;;
19830;SDS011;10076;52.008;4.708;2023-06-14T04:35:44;3.45;;;2.03;;
19830;SDS011;10076;52.008;4.708;2023-06-14T04:38:12;3.20;;;2.20;;
19830;SDS011;10076;52.008;4.708;2023-06-14T04:40:37;4.38;;;2.53;;
19830;SDS011;10076;52.008;4.708;2023-06-14T04:43:08;2.60;;;2.20;;
19830;SDS011;10076;52.008;4.708;2023-06-14T04:45:33;4.32;;;2.30;;
19830;SDS011;10076;52.008;4.708;2023-06-14T04:47:59;6.10;;;2.30;;
19830;SDS011;10076;52.008;4.708;2023-06-14T04:50:24;3.75;;;2.13;;
19830;SDS011;10076;52.008;4.708;2023-06-14T04:52:50;4.05;;;2.13;;
19830;SDS011;10076;52.008;4.708;2023-06-14T04:55:16;6.72;;;2.30;;
19830;SDS011;10076;52.008;4.708;2023-06-14T04:57:42;7.65;;;2.30;;
19830;SDS011;10076;52.008;4.708;2023-06-14T05:00:07;3.47;;;2.20;;
19830;SDS011;10076;52.008;4.708;2023-06-14T05:02:34;6.28;;;2.55;;
19830;SDS011;10076;52.008;4.708;2023-06-14T05:05:00;4.45;;;2.60;;
19830;SDS011;10076;52.008;4.708;2023-06-14T05:07:26;4.18;;;2.10;;
19830;SDS011;10076;52.008;4.708;2023-06-14T05:09:52;3.50;;;2.15;;
19830;SDS011;10076;52.008;4.708;2023-06-14T05:12:17;3.25;;;2.15;;
19830;SDS011;10076;52.008;4.708;2023-06-14T05:14:45;2.97;;;2.08;;
19830;SDS011;10076;52.008;4.708;2023-06-14T05:17:10;6.20;;;2.78;;
19830;SDS011;10076;52.008;4.708;2023-06-14T05:19:36;4.13;;;2.22;;
19830;SDS011;10076;52.008;4.708;2023-06-14T05:22:01;3.53;;;2.03;;
19830;SDS011;10076;52.008;4.708;2023-06-14T05:24:27;6.20;;;2.58;;
19830;SDS011;10076;52.008;4.708;2023-06-14T05:26:55;4.80;;;2.38;;
19830;SDS011;10076;52.008;4.708;2023-06-14T05:29:20;3.33;;;2.28;;
19830;SDS011;10076;52.008;4.708;2023-06-14T05:31:45;4.40;;;2.47;;
19830;SDS011;10076;52.008;4.708;2023-06-14T05:34:11;7.70;;;2.38;;
19830;SDS011;10076;52.008;4.708;2023-06-14T05:36:36;3.50;;;2.20;;
19830;SDS011;10076;52.008;4.708;2023-06-14T05:39:02;4.30;;;2.08;;
19830;SDS011;10076;52.008;4.708;2023-06-14T05:41:28;5.18;;;2.25;;
19830;SDS011;10076;52.008;4.708;2023-06-14T05:43:53;3.60;;;2.22;;
19830;SDS011;10076;52.008;4.708;2023-06-14T05:46:20;4.32;;;1.92;;
19830;SDS011;10076;52.008;4.708;2023-06-14T05:48:49;5.70;;;2.67;;
19830;SDS011;10076;52.008;4.708;2023-06-14T05:51:15;5.50;;;2.20;;
19830;SDS011;10076;52.008;4.708;2023-06-14T05:53:43;3.03;;;1.85;;
19830;SDS011;10076;52.008;4.708;2023-06-14T05:56:09;3.63;;;2.22;;
19830;SDS011;10076;52.008;4.708;2023-06-14T05:58:35;4.20;;;2.72;;
19830;SDS011;10076;52.008;4.708;2023-06-14T06:01:00;5.25;;;2.50;;
19830;SDS011;10076;52.008;4.708;2023-06-14T06:03:26;5.82;;;2.60;;
19830;SDS011;10076;52.008;4.708;2023-06-14T06:05:54;5.45;;;2.28;;
19830;SDS011;10076;52.008;4.708;2023-06-14T06:08:20;4.80;;;2.40;;
19830;SDS011;10076;52.008;4.708;2023-06-14T06:10:45;5.53;;;2.30;;
19830;SDS011;10076;52.008;4.708;2023-06-14T06:13:11;4.38;;;2.40;;
19830;SDS011;10076;52.008;4.708;2023-06-14T06:15:36;4.30;;;2.50;;
19830;SDS011;10076;52.008;4.708;2023-06-14T06:18:02;5.22;;;2.50;;
19830;SDS011;10076;52.008;4.708;2023-06-14T06:20:27;4.57;;;3.22;;
19830;SDS011;10076;52.008;4.708;2023-06-14T06:22:53;5.22;;;2.63;;
19830;SDS011;10076;52.008;4.708;2023-06-14T06:25:19;4.70;;;2.78;;
19830;SDS011;10076;52.008;4.708;2023-06-14T06:27:44;4.25;;;2.60;;
19830;SDS011;10076;52.008;4.708;2023-06-14T06:30:10;4.38;;;2.53;;
19830;SDS011;10076;52.008;4.708;2023-06-14T06:32:36;4.18;;;2.60;;
19830;SDS011;10076;52.008;4.708;2023-06-14T06:35:01;3.63;;;2.35;;
19830;SDS011;10076;52.008;4.708;2023-06-14T06:37:26;4.82;;;2.50;;
19830;SDS011;10076;52.008;4.708;2023-06-14T06:39:51;3.60;;;2.45;;
19830;SDS011;10076;52.008;4.708;2023-06-14T06:42:17;3.40;;;2.50;;
19830;SDS011;10076;52.008;4.708;2023-06-14T06:44:42;5.93;;;2.60;;
19830;SDS011;10076;52.008;4.708;2023-06-14T06:47:07;8.68;;;2.63;;
19830;SDS011;10076;52.008;4.708;2023-06-14T06:49:34;7.60;;;3.25;;
19830;SDS011;10076;52.008;4.708;2023-06-14T06:52:09;7.25;;;2.72;;
19830;SDS011;10076;52.008;4.708;2023-06-14T06:54:34;4.82;;;2.45;;
19830;SDS011;10076;52.008;4.708;2023-06-14T06:57:00;5.35;;;2.65;;
19830;SDS011;10076;52.008;4.708;2023-06-14T06:59:26;4.22;;;2.47;;
19830;SDS011;10076;52.008;4.708;2023-06-14T07:01:51;4.20;;;2.95;;
19830;SDS011;10076;52.008;4.708;2023-06-14T07:04:17;4.40;;;2.72;;
19830;SDS011;10076;52.008;4.708;2023-06-14T07:06:42;7.00;;;3.00;;
19830;SDS011;10076;52.008;4.708;2023-06-14T07:09:08;3.28;;;2.40;;
19830;SDS011;10076;52.008;4.708;2023-06-14T07:11:37;4.75;;;2.90;;
19830;SDS011;10076;52.008;4.708;2023-06-14T07:14:06;2.47;;;2.22;;
19830;SDS011;10076;52.008;4.708;2023-06-14T07:16:31;3.38;;;2.67;;
19830;SDS011;10076;52.008;4.708;2023-06-14T07:18:57;4.85;;;2.85;;
19830;SDS011;10076;52.008;4.708;2023-06-14T07:21:23;4.00;;;2.67;;
19830;SDS011;10076;52.008;4.708;2023-06-14T07:23:48;4.53;;;2.63;;
19830;SDS011;10076;52.008;4.708;2023-06-14T07:26:13;3.65;;;2.55;;
19830;SDS011;10076;52.008;4.708;2023-06-14T07:28:38;3.25;;;2.30;;
19830;SDS011;10076;52.008;4.708;2023-06-14T07:31:04;5.70;;;2.58;;
19830;SDS011;10076;52.008;4.708;2023-06-14T07:33:29;3.75;;;2.80;;
19830;SDS011;10076;52.008;4.708;2023-06-14T07:35:55;3.33;;;2.55;;
19830;SDS011;10076;52.008;4.708;2023-06-14T07:38:20;4.47;;;2.63;;
19830;SDS011;10076;52.008;4.708;2023-06-14T07:40:46;8.00;;;3.03;;
19830;SDS011;10076;52.008;4.708;2023-06-14T07:43:11;4.18;;;2.75;;
19830;SDS011;10076;52.008;4.708;2023-06-14T07:45:37;4.22;;;2.65;;
19830;SDS011;10076;52.008;4.708;2023-06-14T07:48:02;3.72;;;2.50;;
19830;SDS011;10076;52.008;4.708;2023-06-14T07:50:27;6.18;;;2.80;;
19830;SDS011;10076;52.008;4.708;2023-06-14T07:52:53;5.32;;;2.70;;
19830;SDS011;10076;52.008;4.708;2023-06-14T07:55:19;4.00;;;2.65;;
19830;SDS011;10076;52.008;4.708;2023-06-14T07:57:44;5.47;;;2.67;;
19830;SDS011;10076;52.008;4.708;2023-06-14T08:00:09;6.78;;;3.22;;
19830;SDS011;10076;52.008;4.708;2023-06-14T08:02:39;4.85;;;2.90;;
19830;SDS011;10076;52.008;4.708;2023-06-14T08:05:04;5.20;;;2.97;;
19830;SDS011;10076;52.008;4.708;2023-06-14T08:07:30;4.25;;;2.97;;
19830;SDS011;10076;52.008;4.708;2023-06-14T08:09:55;4.18;;;2.45;;
19830;SDS011;10076;52.008;4.708;2023-06-14T08:12:20;3.78;;;2.60;;
19830;SDS011;10076;52.008;4.708;2023-06-14T08:14:46;4.10;;;2.67;;
19830;SDS011;10076;52.008;4.708;2023-06-14T08:17:11;4.85;;;2.75;;
19830;SDS011;10076;52.008;4.708;2023-06-14T08:19:36;4.65;;;2.90;;
19830;SDS011;10076;52.008;4.708;2023-06-14T08:22:02;5.57;;;2.80;;
19830;SDS011;10076;52.008;4.708;2023-06-14T08:24:28;4.22;;;2.80;;
19830;SDS011;10076;52.008;4.708;2023-06-14T08:26:54;3.22;;;2.30;;
19830;SDS011;10076;52.008;4.708;2023-06-14T08:29:19;6.10;;;3.10;;
19830;SDS011;10076;52.008;4.708;2023-06-14T08:31:44;4.18;;;2.47;;
19830;SDS011;10076;52.008;4.708;2023-06-14T08:34:10;2.90;;;2.58;;
19830;SDS011;10076;52.008;4.708;2023-06-14T08:36:35;4.50;;;2.75;;
19830;SDS011;10076;52.008;4.708;2023-06-14T08:39:01;6.13;;;2.92;;
19830;SDS011;10076;52.008;4.708;2023-06-14T08:41:26;6.32;;;3.25;;
19830;SDS011;10076;52.008;4.708;2023-06-14T08:43:54;4.53;;;3.55;;
19830;SDS011;10076;52.008;4.708;2023-06-14T08:46:20;4.72;;;3.00;;
19830;SDS011;10076;52.008;4.708;2023-06-14T08:48:47;7.35;;;3.30;;
19830;SDS011;10076;52.008;4.708;2023-06-14T08:51:15;3.08;;;2.60;;
19830;SDS011;10076;52.008;4.708;2023-06-14T08:53:43;9.10;;;3.30;;
19830;SDS011;10076;52.008;4.708;2023-06-14T08:56:09;7.35;;;2.30;;
19830;SDS011;10076;52.008;4.708;2023-06-14T08:58:38;4.43;;;3.03;;
19830;SDS011;10076;52.008;4.708;2023-06-14T09:01:10;3.53;;;2.53;;
19830;SDS011;10076;52.008;4.708;2023-06-14T09:03:39;3.83;;;2.40;;
19830;SDS011;10076;52.008;4.708;2023-06-14T09:06:08;3.70;;;2.67;;
19830;SDS011;10076;52.008;4.708;2023-06-14T09:08:39;3.15;;;2.60;;
19830;SDS011;10076;52.008;4.708;2023-06-14T09:11:14;5.95;;;2.53;;
19830;SDS011;10076;52.008;4.708;2023-06-14T09:13:41;4.25;;;2.58;;
19830;SDS011;10076;52.008;4.708;2023-06-14T09:16:07;2.83;;;2.20;;
19830;SDS011;10076;52.008;4.708;2023-06-14T09:18:36;4.38;;;2.20;;
19830;SDS011;10076;52.008;4.708;2023-06-14T09:21:09;2.28;;;2.03;;
19830;SDS011;10076;52.008;4.708;2023-06-14T09:23:40;2.97;;;2.28;;
19830;SDS011;10076;52.008;4.708;2023-06-14T09:26:14;5.10;;;2.30;;
19830;SDS011;10076;52.008;4.708;2023-06-14T09:28:47;3.45;;;2.30;;
19830;SDS011;10076;52.008;4.708;2023-06-14T09:31:14;3.22;;;2.22;;
19830;SDS011;10076;52.008;4.708;2023-06-14T09:33:47;2.40;;;2.17;;
19830;SDS011;10076;52.008;4.708;2023-06-14T09:36:18;4.32;;;2.20;;
19830;SDS011;10076;52.008;4.708;2023-06-14T09:38:55;2.72;;;1.98;;
19830;SDS011;10076;52.008;4.708;2023-06-14T09:41:31;4.10;;;2.15;;
19830;SDS011;10076;52.008;4.708;2023-06-14T09:44:01;4.85;;;2.13;;
19830;SDS011;10076;52.008;4.708;2023-06-14T09:46:28;2.85;;;2.13;;
19830;SDS011;10076;52.008;4.708;2023-06-14T09:48:55;3.10;;;2.00;;
19830;SDS011;10076;52.008;4.708;2023-06-14T09:51:24;7.00;;;2.28;;
19830;SDS011;10076;52.008;4.708;2023-06-14T09:53:51;2.30;;;1.83;;
19830;SDS011;10076;52.008;4.708;2023-06-14T09:56:27;2.53;;;2.10;;
19830;SDS011;10076;52.008;4.708;2023-06-14T09:58:55;2.70;;;2.10;;
19830;SDS011;10076;52.008;4.708;2023-06-14T10:01:22;4.45;;;2.17;;
19830;SDS011;10076;52.008;4.708;2023-06-14T10:03:55;3.97;;;2.10;;
19830;SDS011;10076;52.008;4.708;2023-06-14T10:06:25;2.00;;;1.67;;
19830;SDS011;10076;52.008;4.708;2023-06-14T10:08:53;4.68;;;1.80;;
19830;SDS011;10076;52.008;4.708;2023-06-14T10:11:22;2.67;;;2.15;;
19830;SDS011;10076;52.008;4.708;2023-06-14T10:13:48;2.03;;;1.83;;
19830;SDS011;10076;52.008;4.708;2023-06-14T10:16:16;3.90;;;2.00;;
19830;SDS011;10076;52.008;4.708;2023-06-14T10:18:53;4.18;;;2.28;;
19830;SDS011;10076;52.008;4.708;2023-06-14T10:23:47;3.40;;;1.80;;
19830;SDS011;10076;52.008;4.708;2023-06-14T10:26:18;2.13;;;1.73;;
19830;SDS011;10076;52.008;4.708;2023-06-14T10:28:57;2.35;;;1.77;;
19830;SDS011;10076;52.008;4.708;2023-06-14T10:31:39;2.10;;;1.90;;
19830;SDS011;10076;52.008;4.708;2023-06-14T10:34:08;1.88;;;1.70;;
19830;SDS011;10076;52.008;4.708;2023-06-14T10:36:33;3.30;;;2.33;;
19830;SDS011;10076;52.008;4.708;2023-06-14T10:39:01;1.90;;;1.70;;
19830;SDS011;10076;52.008;4.708;2023-06-14T10:41:29;2.83;;;1.70;;
19830;SDS011;10076;52.008;4.708;2023-06-14T10:44:10;2.50;;;1.45;;
19830;SDS011;10076;52.008;4.708;2023-06-14T10:46:56;3.15;;;1.35;;
19830;SDS011;10076;52.008;4.708;2023-06-14T10:52:27;1.60;;;1.50;;
19830;SDS011;10076;52.008;4.708;2023-06-14T10:55:13;1.60;;;1.50;;
19830;SDS011;10076;52.008;4.708;2023-06-14T11:00:16;2.05;;;1.85;;
19830;SDS011;10076;52.008;4.708;2023-06-14T11:05:24;2.85;;;1.58;;
19830;SDS011;10076;52.008;4.708;2023-06-14T11:13:06;2.22;;;1.63;;
19830;SDS011;10076;52.008;4.708;2023-06-14T11:15:32;3.08;;;1.80;;
19830;SDS011;10076;52.008;4.708;2023-06-14T11:18:06;2.38;;;1.70;;
19830;SDS011;10076;52.008;4.708;2023-06-14T11:20:34;1.90;;;1.70;;
19830;SDS011;10076;52.008;4.708;2023-06-14T11:23:01;1.40;;;1.30;;
19830;SDS011;10076;52.008;4.708;2023-06-14T11:25:27;2.42;;;1.50;;
19830;SDS011;10076;52.008;4.708;2023-06-14T11:27:55;2.95;;;1.38;;
19830;SDS011;10076;52.008;4.708;2023-06-14T11:30:21;2.08;;;1.52;;
19830;SDS011;10076;52.008;4.708;2023-06-14T11:32:47;1.45;;;1.35;;
19830;SDS011;10076;52.008;4.708;2023-06-14T11:35:16;3.55;;;1.58;;
19830;SDS011;10076;52.008;4.708;2023-06-14T11:37:42;1.88;;;1.60;;
19830;SDS011;10076;52.008;4.708;2023-06-14T11:40:09;2.22;;;1.50;;
19830;SDS011;10076;52.008;4.708;2023-06-14T11:42:36;2.47;;;1.30;;
19830;SDS011;10076;52.008;4.708;2023-06-14T11:45:02;1.30;;;1.20;;
19830;SDS011;10076;52.008;4.708;2023-06-14T11:47:33;1.90;;;1.40;;
19830;SDS011;10076;52.008;4.708;2023-06-14T11:49:59;2.55;;;1.27;;
19830;SDS011;10076;52.008;4.708;2023-06-14T11:52:24;1.80;;;1.50;;
19830;SDS011;10076;52.008;4.708;2023-06-14T11:54:50;2.50;;;1.30;;
19830;SDS011;10076;52.008;4.708;2023-06-14T11:57:15;1.80;;;1.30;;
19830;SDS011;10076;52.008;4.708;2023-06-14T11:59:43;2.38;;;1.40;;
19830;SDS011;10076;52.008;4.708;2023-06-14T12:02:09;3.70;;;1.58;;
19830;SDS011;10076;52.008;4.708;2023-06-14T12:04:40;1.30;;;1.20;;
19830;SDS011;10076;52.008;4.708;2023-06-14T12:07:13;2.53;;;1.60;;
19830;SDS011;10076;52.008;4.708;2023-06-14T12:12:24;2.67;;;1.55;;
19830;SDS011;10076;52.008;4.708;2023-06-14T12:14:50;1.60;;;1.50;;
19830;SDS011;10076;52.008;4.708;2023-06-14T12:17:16;2.08;;;1.55;;
19830;SDS011;10076;52.008;4.708;2023-06-14T12:19:43;2.65;;;1.35;;
19830;SDS011;10076;52.008;4.708;2023-06-14T12:22:12;1.52;;;1.42;;
19830;SDS011;10076;52.008;4.708;2023-06-14T12:24:38;1.30;;;1.20;;
19830;SDS011;10076;52.008;4.708;2023-06-14T12:27:07;1.83;;;1.58;;
19830;SDS011;10076;52.008;4.708;2023-06-14T12:29:33;1.67;;;1.58;;
19830;SDS011;10076;52.008;4.708;2023-06-14T12:31:58;1.83;;;1.40;;
19830;SDS011;10076;52.008;4.708;2023-06-14T12:34:24;2.88;;;1.70;;
19830;SDS011;10076;52.008;4.708;2023-06-14T12:36:50;1.88;;;1.60;;
19830;SDS011;10076;52.008;4.708;2023-06-14T12:39:15;4.55;;;1.75;;
19830;SDS011;10076;52.008;4.708;2023-06-14T12:41:41;1.95;;;1.70;;
19830;SDS011;10076;52.008;4.708;2023-06-14T12:44:06;3.90;;;1.60;;
19830;SDS011;10076;52.008;4.708;2023-06-14T12:46:32;2.10;;;1.50;;
19830;SDS011;10076;52.008;4.708;2023-06-14T12:48:58;2.28;;;1.58;;
19830;SDS011;10076;52.008;4.708;2023-06-14T12:51:23;2.28;;;1.60;;
19830;SDS011;10076;52.008;4.708;2023-06-14T12:53:50;1.65;;;1.38;;
19830;SDS011;10076;52.008;4.708;2023-06-14T12:56:15;12.38;;;2.13;;
19830;SDS011;10076;52.008;4.708;2023-06-14T12:58:41;7.97;;;1.80;;
19830;SDS011;10076;52.008;4.708;2023-06-14T13:01:07;4.30;;;1.50;;
19830;SDS011;10076;52.008;4.708;2023-06-14T13:03:32;3.25;;;1.70;;
19830;SDS011;10076;52.008;4.708;2023-06-14T13:06:01;3.00;;;1.40;;
19830;SDS011;10076;52.008;4.708;2023-06-14T13:08:27;2.58;;;1.65;;
19830;SDS011;10076;52.008;4.708;2023-06-14T13:10:53;5.85;;;1.60;;
19830;SDS011;10076;52.008;4.708;2023-06-14T13:13:19;4.65;;;1.58;;
19830;SDS011;10076;52.008;4.708;2023-06-14T13:15:44;3.90;;;1.48;;
19830;SDS011;10076;52.008;4.708;2023-06-14T13:18:11;5.90;;;1.52;;
19830;SDS011;10076;52.008;4.708;2023-06-14T13:20:38;12.95;;;2.20;;
19830;SDS011;10076;52.008;4.708;2023-06-14T13:23:04;3.97;;;1.55;;
19830;SDS011;10076;52.008;4.708;2023-06-14T13:25:30;2.08;;;1.55;;
19830;SDS011;10076;52.008;4.708;2023-06-14T13:27:56;9.13;;;2.05;;
19830;SDS011;10076;52.008;4.708;2023-06-14T13:30:21;4.28;;;1.67;;
19830;SDS011;10076;52.008;4.708;2023-06-14T13:32:47;8.10;;;1.80;;
19830;SDS011;10076;52.008;4.708;2023-06-14T13:35:12;2.70;;;1.50;;
19830;SDS011;10076;52.008;4.708;2023-06-14T13:37:37;2.10;;;1.73;;
19830;SDS011;10076;52.008;4.708;2023-06-14T13:40:03;1.95;;;1.65;;
19830;SDS011;10076;52.008;4.708;2023-06-14T13:42:29;3.17;;;1.70;;
19830;SDS011;10076;52.008;4.708;2023-06-14T13:44:56;2.00;;;1.30;;
19830;SDS011;10076;52.008;4.708;2023-06-14T13:47:21;1.80;;;1.40;;
19830;SDS011;10076;52.008;4.708;2023-06-14T13:49:46;2.60;;;1.20;;
19830;SDS011;10076;52.008;4.708;2023-06-14T13:52:12;1.55;;;1.42;;
19830;SDS011;10076;52.008;4.708;2023-06-14T13:54:38;1.50;;;1.40;;
19830;SDS011;10076;52.008;4.708;2023-06-14T13:57:03;1.77;;;1.33;;
19830;SDS011;10076;52.008;4.708;2023-06-14T13:59:29;4.45;;;1.33;;
19830;SDS011;10076;52.008;4.708;2023-06-14T14:01:54;1.67;;;1.38;;
19830;SDS011;10076;52.008;4.708;2023-06-14T14:04:20;1.60;;;1.50;;
19830;SDS011;10076;52.008;4.708;2023-06-14T14:06:45;1.67;;;1.30;;
19830;SDS011;10076;52.008;4.708;2023-06-14T14:09:11;2.17;;;1.60;;
19830;SDS011;10076;52.008;4.708;2023-06-14T14:11:36;1.85;;;1.50;;
19830;SDS011;10076;52.008;4.708;2023-06-14T14:14:01;1.50;;;1.40;;
19830;SDS011;10076;52.008;4.708;2023-06-14T14:16:27;2.17;;;1.60;;
19830;SDS011;10076;52.008;4.708;2023-06-14T14:18:52;2.00;;;1.40;;
19830;SDS011;10076;52.008;4.708;2023-06-14T14:21:18;1.45;;;1.30;;
19830;SDS011;10076;52.008;4.708;2023-06-14T14:23:44;3.55;;;1.75;;
19830;SDS011;10076;52.008;4.708;2023-06-14T14:26:10;2.85;;;1.05;;
19830;SDS011;10076;52.008;4.708;2023-06-14T14:28:36;1.50;;;1.20;;
19830;SDS011;10076;52.008;4.708;2023-06-14T14:31:01;1.90;;;1.60;;
19830;SDS011;10076;52.008;4.708;2023-06-14T14:33:26;1.63;;;1.40;;
19830;SDS011;10076;52.008;4.708;2023-06-14T14:35:51;1.65;;;1.50;;
19830;SDS011;10076;52.008;4.708;2023-06-14T14:38:17;1.52;;;1.35;;
19830;SDS011;10076;52.008;4.708;2023-06-14T14:40:43;2.08;;;1.80;;
19830;SDS011;10076;52.008;4.708;2023-06-14T14:43:09;1.98;;;1.27;;
19830;SDS011;10076;52.008;4.708;2023-06-14T14:45:34;2.20;;;1.67;;
19830;SDS011;10076;52.008;4.708;2023-06-14T14:48:00;1.73;;;1.42;;
19830;SDS011;10076;52.008;4.708;2023-06-14T14:50:26;2.65;;;1.60;;
19830;SDS011;10076;52.008;4.708;2023-06-14T14:52:51;2.10;;;1.73;;
19830;SDS011;10076;52.008;4.708;2023-06-14T14:55:17;2.17;;;1.60;;
19830;SDS011;10076;52.008;4.708;2023-06-14T14:57:42;2.92;;;1.40;;
19830;SDS011;10076;52.008;4.708;2023-06-14T15:00:08;1.85;;;1.50;;
19830;SDS011;10076;52.008;4.708;2023-06-14T15:02:34;4.50;;;1.40;;
19830;SDS011;10076;52.008;4.708;2023-06-14T15:04:59;1.42;;;1.33;;
19830;SDS011;10076;52.008;4.708;2023-06-14T15:07:28;1.38;;;1.27;;